sensor_id;sensor_type;location;lat;lon;timestamp;temperature;humidity
69944;DHT22;57257;48.408;-4.498;2023-02-02T00:01:12;11.87;59.14
69944;DHT22;57257;48.408;-4.498;2023-02-02T00:03:37;11.82;59.34
69944;DHT22;57257;48.408;-4.498;2023-02-02T00:06:04;11.83;59.40
69944;DHT22;57257;48.408;-4.498;2023-02-02T00:08:29;11.82;59.56
69944;DHT22;57257;48.408;-4.498;2023-02-02T00:10:55;11.83;59.48
69944;DHT22;57257;48.408;-4.498;2023-02-02T00:13:21;11.83;59.62
69944;DHT22;57257;48.408;-4.498;2023-02-02T00:15:47;11.82;59.58
69944;DHT22;57257;48.408;-4.498;2023-02-02T00:18:12;11.83;59.53
69944;DHT22;57257;48.408;-4.498;2023-02-02T00:20:37;11.82;59.67
69944;DHT22;57257;48.408;-4.498;2023-02-02T00:23:03;11.82;59.76
69944;DHT22;57257;48.408;-4.498;2023-02-02T00:25:29;11.79;59.70
69944;DHT22;57257;48.408;-4.498;2023-02-02T00:27:55;11.78;59.68
69944;DHT22;57257;48.408;-4.498;2023-02-02T00:30:21;11.79;59.73
69944;DHT22;57257;48.408;-4.498;2023-02-02T00:32:46;11.78;59.74
69944;DHT22;57257;48.408;-4.498;2023-02-02T00:35:16;11.78;59.84
69944;DHT22;57257;48.408;-4.498;2023-02-02T00:37:41;11.78;59.85
69944;DHT22;57257;48.408;-4.498;2023-02-02T00:40:08;11.75;59.99
69944;DHT22;57257;48.408;-4.498;2023-02-02T00:42:34;11.76;60.03
69944;DHT22;57257;48.408;-4.498;2023-02-02T00:44:59;11.79;60.10
69944;DHT22;57257;48.408;-4.498;2023-02-02T00:47:44;11.78;60.22
69944;DHT22;57257;48.408;-4.498;2023-02-02T00:50:11;11.79;60.13
69944;DHT22;57257;48.408;-4.498;2023-02-02T00:52:37;11.80;60.19
69944;DHT22;57257;48.408;-4.498;2023-02-02T00:55:03;11.82;60.27
69944;DHT22;57257;48.408;-4.498;2023-02-02T00:57:28;11.78;60.28
69944;DHT22;57257;48.408;-4.498;2023-02-02T00:59:54;11.79;60.42
69944;DHT22;57257;48.408;-4.498;2023-02-02T01:02:19;11.80;60.44
69944;DHT22;57257;48.408;-4.498;2023-02-02T01:04:45;11.80;60.47
69944;DHT22;57257;48.408;-4.498;2023-02-02T01:07:10;11.80;60.54
69944;DHT22;57257;48.408;-4.498;2023-02-02T01:09:35;11.83;60.60
69944;DHT22;57257;48.408;-4.498;2023-02-02T01:12:01;11.83;60.68
69944;DHT22;57257;48.408;-4.498;2023-02-02T01:14:26;11.86;60.61
69944;DHT22;57257;48.408;-4.498;2023-02-02T01:16:52;11.85;60.58
69944;DHT22;57257;48.408;-4.498;2023-02-02T01:19:17;11.86;60.52
69944;DHT22;57257;48.408;-4.498;2023-02-02T01:21:43;11.82;60.59
69944;DHT22;57257;48.408;-4.498;2023-02-02T01:24:08;11.82;60.70
69944;DHT22;57257;48.408;-4.498;2023-02-02T01:26:34;11.83;60.73
69944;DHT22;57257;48.408;-4.498;2023-02-02T01:28:59;11.85;60.83
69944;DHT22;57257;48.408;-4.498;2023-02-02T01:31:25;11.85;60.89
69944;DHT22;57257;48.408;-4.498;2023-02-02T01:33:51;11.83;60.81
69944;DHT22;57257;48.408;-4.498;2023-02-02T01:36:19;11.83;60.96
69944;DHT22;57257;48.408;-4.498;2023-02-02T01:38:46;11.85;60.89
69944;DHT22;57257;48.408;-4.498;2023-02-02T01:41:14;11.80;60.94
69944;DHT22;57257;48.408;-4.498;2023-02-02T01:46:10;11.78;60.97
69944;DHT22;57257;48.408;-4.498;2023-02-02T01:48:37;11.75;61.13
69944;DHT22;57257;48.408;-4.498;2023-02-02T01:51:11;11.76;61.21
69944;DHT22;57257;48.408;-4.498;2023-02-02T01:53:37;11.75;61.29
69944;DHT22;57257;48.408;-4.498;2023-02-02T01:56:05;11.75;61.39
69944;DHT22;57257;48.408;-4.498;2023-02-02T01:58:37;11.78;61.47
69944;DHT22;57257;48.408;-4.498;2023-02-02T02:01:04;11.76;61.50
69944;DHT22;57257;48.408;-4.498;2023-02-02T02:03:31;11.75;61.55
69944;DHT22;57257;48.408;-4.498;2023-02-02T02:06:01;11.72;61.81
69944;DHT22;57257;48.408;-4.498;2023-02-02T02:08:30;11.72;61.90
69944;DHT22;57257;48.408;-4.498;2023-02-02T02:10:58;11.75;61.84
69944;DHT22;57257;48.408;-4.498;2023-02-02T02:13:25;11.76;61.95
69944;DHT22;57257;48.408;-4.498;2023-02-02T02:16:28;11.76;62.06
69944;DHT22;57257;48.408;-4.498;2023-02-02T02:34:19;11.73;62.22
69944;DHT22;57257;48.408;-4.498;2023-02-02T02:36:58;11.75;62.50
69944;DHT22;57257;48.408;-4.498;2023-02-02T02:39:49;11.75;62.63
69944;DHT22;57257;48.408;-4.498;2023-02-02T02:42:21;11.73;62.79
69944;DHT22;57257;48.408;-4.498;2023-02-02T02:44:48;11.76;62.92
69944;DHT22;57257;48.408;-4.498;2023-02-02T02:47:16;11.75;62.92
69944;DHT22;57257;48.408;-4.498;2023-02-02T02:49:46;11.76;62.91
69944;DHT22;57257;48.408;-4.498;2023-02-02T02:52:12;11.80;63.03
69944;DHT22;57257;48.408;-4.498;2023-02-02T02:54:58;11.79;62.88
69944;DHT22;57257;48.408;-4.498;2023-02-02T02:58:13;11.79;63.01
69944;DHT22;57257;48.408;-4.498;2023-02-02T03:00:50;11.79;63.09
69944;DHT22;57257;48.408;-4.498;2023-02-02T03:09:36;11.78;62.68
69944;DHT22;57257;48.408;-4.498;2023-02-02T03:12:04;11.68;62.79
69944;DHT22;57257;48.408;-4.498;2023-02-02T03:14:37;11.66;63.10
69944;DHT22;57257;48.408;-4.498;2023-02-02T03:17:03;11.68;63.05
69944;DHT22;57257;48.408;-4.498;2023-02-02T03:19:29;11.72;63.02
69944;DHT22;57257;48.408;-4.498;2023-02-02T03:21:54;11.70;63.20
69944;DHT22;57257;48.408;-4.498;2023-02-02T03:24:20;11.70;63.21
69944;DHT22;57257;48.408;-4.498;2023-02-02T03:26:45;11.73;63.11
69944;DHT22;57257;48.408;-4.498;2023-02-02T03:29:11;11.70;63.31
69944;DHT22;57257;48.408;-4.498;2023-02-02T03:31:37;11.72;63.36
69944;DHT22;57257;48.408;-4.498;2023-02-02T03:34:03;11.76;63.28
69944;DHT22;57257;48.408;-4.498;2023-02-02T03:36:28;11.79;63.26
69944;DHT22;57257;48.408;-4.498;2023-02-02T03:38:54;11.80;63.11
69944;DHT22;57257;48.408;-4.498;2023-02-02T03:41:19;11.75;63.06
69944;DHT22;57257;48.408;-4.498;2023-02-02T03:43:45;11.75;63.21
69944;DHT22;57257;48.408;-4.498;2023-02-02T03:46:10;11.76;63.14
69944;DHT22;57257;48.408;-4.498;2023-02-02T03:48:37;11.78;62.98
69944;DHT22;57257;48.408;-4.498;2023-02-02T03:51:12;11.75;62.83
69944;DHT22;57257;48.408;-4.498;2023-02-02T03:53:41;11.70;62.65
69944;DHT22;57257;48.408;-4.498;2023-02-02T03:56:12;11.69;62.71
69944;DHT22;57257;48.408;-4.498;2023-02-02T03:58:37;11.68;62.66
69944;DHT22;57257;48.408;-4.498;2023-02-02T04:01:09;11.65;62.71
69944;DHT22;57257;48.408;-4.498;2023-02-02T04:03:35;11.68;62.82
69944;DHT22;57257;48.408;-4.498;2023-02-02T04:06:01;11.69;62.88
69944;DHT22;57257;48.408;-4.498;2023-02-02T04:08:26;11.68;63.01
69944;DHT22;57257;48.408;-4.498;2023-02-02T04:10:53;11.69;62.99
69944;DHT22;57257;48.408;-4.498;2023-02-02T04:13:18;11.70;62.91
69944;DHT22;57257;48.408;-4.498;2023-02-02T04:15:44;11.70;62.80
69944;DHT22;57257;48.408;-4.498;2023-02-02T04:18:09;11.68;62.88
69944;DHT22;57257;48.408;-4.498;2023-02-02T04:20:35;11.68;62.95
69944;DHT22;57257;48.408;-4.498;2023-02-02T04:23:00;11.70;63.00
69944;DHT22;57257;48.408;-4.498;2023-02-02T04:25:26;11.66;62.95
69944;DHT22;57257;48.408;-4.498;2023-02-02T04:27:51;11.65;63.02
69944;DHT22;57257;48.408;-4.498;2023-02-02T04:30:17;11.68;63.19
69944;DHT22;57257;48.408;-4.498;2023-02-02T04:32:44;11.66;63.24
69944;DHT22;57257;48.408;-4.498;2023-02-02T04:35:10;11.69;63.19
69944;DHT22;57257;48.408;-4.498;2023-02-02T04:37:35;11.73;63.25
69944;DHT22;57257;48.408;-4.498;2023-02-02T04:40:01;11.70;63.29
69944;DHT22;57257;48.408;-4.498;2023-02-02T04:42:26;11.76;63.41
69944;DHT22;57257;48.408;-4.498;2023-02-02T04:44:52;11.76;63.36
69944;DHT22;57257;48.408;-4.498;2023-02-02T04:47:17;11.78;63.31
69944;DHT22;57257;48.408;-4.498;2023-02-02T04:49:42;11.80;63.22
69944;DHT22;57257;48.408;-4.498;2023-02-02T04:52:09;11.83;63.16
69944;DHT22;57257;48.408;-4.498;2023-02-02T04:54:35;11.86;63.21
69944;DHT22;57257;48.408;-4.498;2023-02-02T04:57:00;11.86;63.25
69944;DHT22;57257;48.408;-4.498;2023-02-02T04:59:27;11.87;63.43
69944;DHT22;57257;48.408;-4.498;2023-02-02T05:01:55;11.85;63.19
69944;DHT22;57257;48.408;-4.498;2023-02-02T05:04:20;11.87;62.38
69944;DHT22;57257;48.408;-4.498;2023-02-02T05:06:46;11.87;62.09
69944;DHT22;57257;48.408;-4.498;2023-02-02T05:09:11;11.90;61.78
69944;DHT22;57257;48.408;-4.498;2023-02-02T05:11:37;11.93;61.37
69944;DHT22;57257;48.408;-4.498;2023-02-02T05:14:04;11.93;61.23
69944;DHT22;57257;48.408;-4.498;2023-02-02T05:16:30;11.94;61.19
69944;DHT22;57257;48.408;-4.498;2023-02-02T05:18:55;11.93;61.13
69944;DHT22;57257;48.408;-4.498;2023-02-02T05:21:22;11.93;61.12
69944;DHT22;57257;48.408;-4.498;2023-02-02T05:23:47;11.93;61.19
69944;DHT22;57257;48.408;-4.498;2023-02-02T05:26:16;11.96;61.03
69944;DHT22;57257;48.408;-4.498;2023-02-02T05:28:42;11.92;61.02
69944;DHT22;57257;48.408;-4.498;2023-02-02T05:31:09;11.93;61.04
69944;DHT22;57257;48.408;-4.498;2023-02-02T05:33:34;11.92;61.10
69944;DHT22;57257;48.408;-4.498;2023-02-02T05:35:59;11.92;61.17
69944;DHT22;57257;48.408;-4.498;2023-02-02T05:38:25;11.93;61.04
69944;DHT22;57257;48.408;-4.498;2023-02-02T05:40:50;11.96;60.80
69944;DHT22;57257;48.408;-4.498;2023-02-02T05:43:16;12.00;60.46
69944;DHT22;57257;48.408;-4.498;2023-02-02T05:45:41;12.00;60.61
69944;DHT22;57257;48.408;-4.498;2023-02-02T05:48:09;12.02;60.24
69944;DHT22;57257;48.408;-4.498;2023-02-02T05:50:37;12.00;60.10
69944;DHT22;57257;48.408;-4.498;2023-02-02T05:53:02;12.03;60.29
69944;DHT22;57257;48.408;-4.498;2023-02-02T05:55:28;12.03;60.30
69944;DHT22;57257;48.408;-4.498;2023-02-02T05:57:53;12.03;60.21
69944;DHT22;57257;48.408;-4.498;2023-02-02T06:00:19;12.06;60.12
69944;DHT22;57257;48.408;-4.498;2023-02-02T06:02:44;12.06;59.93
69944;DHT22;57257;48.408;-4.498;2023-02-02T06:05:10;12.04;60.07
69944;DHT22;57257;48.408;-4.498;2023-02-02T06:07:35;12.06;60.07
69944;DHT22;57257;48.408;-4.498;2023-02-02T06:10:01;12.06;60.06
69944;DHT22;57257;48.408;-4.498;2023-02-02T06:12:26;12.06;59.95
69944;DHT22;57257;48.408;-4.498;2023-02-02T06:14:51;12.04;59.98
69944;DHT22;57257;48.408;-4.498;2023-02-02T06:17:17;12.04;59.93
69944;DHT22;57257;48.408;-4.498;2023-02-02T06:19:42;12.06;60.17
69944;DHT22;57257;48.408;-4.498;2023-02-02T06:22:08;12.04;60.15
69944;DHT22;57257;48.408;-4.498;2023-02-02T06:24:33;12.09;60.23
69944;DHT22;57257;48.408;-4.498;2023-02-02T06:26:59;12.10;60.25
69944;DHT22;57257;48.408;-4.498;2023-02-02T06:29:24;12.12;60.25
69944;DHT22;57257;48.408;-4.498;2023-02-02T06:31:49;12.10;60.33
69944;DHT22;57257;48.408;-4.498;2023-02-02T06:34:15;12.12;60.35
69944;DHT22;57257;48.408;-4.498;2023-02-02T06:36:41;12.16;60.29
69944;DHT22;57257;48.408;-4.498;2023-02-02T06:39:06;12.20;60.21
69944;DHT22;57257;48.408;-4.498;2023-02-02T06:41:33;12.17;60.07
69944;DHT22;57257;48.408;-4.498;2023-02-02T06:43:58;12.17;59.85
69944;DHT22;57257;48.408;-4.498;2023-02-02T06:46:24;12.13;60.07
69944;DHT22;57257;48.408;-4.498;2023-02-02T06:48:49;12.13;60.27
69944;DHT22;57257;48.408;-4.498;2023-02-02T06:51:15;12.12;60.27
69944;DHT22;57257;48.408;-4.498;2023-02-02T06:53:40;12.13;60.46
69944;DHT22;57257;48.408;-4.498;2023-02-02T06:56:08;12.14;60.54
69944;DHT22;57257;48.408;-4.498;2023-02-02T06:58:35;12.17;60.34
69944;DHT22;57257;48.408;-4.498;2023-02-02T07:01:06;12.17;60.23
69944;DHT22;57257;48.408;-4.498;2023-02-02T07:03:33;12.17;60.32
69944;DHT22;57257;48.408;-4.498;2023-02-02T07:05:59;12.20;60.35
69944;DHT22;57257;48.408;-4.498;2023-02-02T07:08:24;12.22;60.42
69944;DHT22;57257;48.408;-4.498;2023-02-02T07:10:49;12.23;60.46
69944;DHT22;57257;48.408;-4.498;2023-02-02T07:13:15;12.23;60.43
69944;DHT22;57257;48.408;-4.498;2023-02-02T07:15:40;12.24;60.41
69944;DHT22;57257;48.408;-4.498;2023-02-02T07:18:06;12.23;60.54
69944;DHT22;57257;48.408;-4.498;2023-02-02T07:20:32;12.26;60.59
69944;DHT22;57257;48.408;-4.498;2023-02-02T07:22:57;12.26;60.55
69944;DHT22;57257;48.408;-4.498;2023-02-02T07:25:23;12.24;60.61
69944;DHT22;57257;48.408;-4.498;2023-02-02T07:27:55;12.23;60.55
69944;DHT22;57257;48.408;-4.498;2023-02-02T07:30:20;12.22;60.67
69944;DHT22;57257;48.408;-4.498;2023-02-02T07:32:49;12.22;60.68
69944;DHT22;57257;48.408;-4.498;2023-02-02T07:35:15;12.19;60.66
69944;DHT22;57257;48.408;-4.498;2023-02-02T07:37:41;12.17;60.71
69944;DHT22;57257;48.408;-4.498;2023-02-02T07:40:08;12.17;60.65
69944;DHT22;57257;48.408;-4.498;2023-02-02T07:42:33;12.10;60.71
69944;DHT22;57257;48.408;-4.498;2023-02-02T07:44:59;12.06;60.83
69944;DHT22;57257;48.408;-4.498;2023-02-02T07:47:25;12.09;60.98
69944;DHT22;57257;48.408;-4.498;2023-02-02T07:49:50;12.06;61.05
69944;DHT22;57257;48.408;-4.498;2023-02-02T07:52:16;12.12;61.08
69944;DHT22;57257;48.408;-4.498;2023-02-02T07:54:41;12.10;61.14
69944;DHT22;57257;48.408;-4.498;2023-02-02T07:57:07;12.10;61.19
69944;DHT22;57257;48.408;-4.498;2023-02-02T07:59:32;12.16;61.29
69944;DHT22;57257;48.408;-4.498;2023-02-02T08:01:58;12.17;61.27
69944;DHT22;57257;48.408;-4.498;2023-02-02T08:04:23;12.17;61.34
69944;DHT22;57257;48.408;-4.498;2023-02-02T08:06:49;12.22;61.25
69944;DHT22;57257;48.408;-4.498;2023-02-02T08:09:14;12.14;61.30
69944;DHT22;57257;48.408;-4.498;2023-02-02T08:11:40;12.13;61.46
69944;DHT22;57257;48.408;-4.498;2023-02-02T08:14:06;12.13;61.52
69944;DHT22;57257;48.408;-4.498;2023-02-02T08:16:33;12.10;61.62
69944;DHT22;57257;48.408;-4.498;2023-02-02T08:18:59;12.14;61.56
69944;DHT22;57257;48.408;-4.498;2023-02-02T08:21:24;12.16;61.60
69944;DHT22;57257;48.408;-4.498;2023-02-02T08:23:51;12.19;61.69
69944;DHT22;57257;48.408;-4.498;2023-02-02T08:28:46;12.17;61.62
69944;DHT22;57257;48.408;-4.498;2023-02-02T08:31:17;12.17;61.76
69944;DHT22;57257;48.408;-4.498;2023-02-02T08:33:43;12.23;61.80
69944;DHT22;57257;48.408;-4.498;2023-02-02T08:36:20;12.23;61.75
69944;DHT22;57257;48.408;-4.498;2023-02-02T08:38:46;12.27;61.56
69944;DHT22;57257;48.408;-4.498;2023-02-02T08:41:18;12.32;61.49
69944;DHT22;57257;48.408;-4.498;2023-02-02T08:43:43;12.30;61.42
69944;DHT22;57257;48.408;-4.498;2023-02-02T08:46:10;12.29;61.25
69944;DHT22;57257;48.408;-4.498;2023-02-02T08:48:37;12.27;61.44
69944;DHT22;57257;48.408;-4.498;2023-02-02T08:51:03;12.30;61.58
69944;DHT22;57257;48.408;-4.498;2023-02-02T08:53:29;12.36;61.49
69944;DHT22;57257;48.408;-4.498;2023-02-02T08:56:05;12.38;61.48
69944;DHT22;57257;48.408;-4.498;2023-02-02T08:58:31;12.43;61.35
69944;DHT22;57257;48.408;-4.498;2023-02-02T09:03:29;12.41;61.39
69944;DHT22;57257;48.408;-4.498;2023-02-02T09:05:55;12.41;61.16
69944;DHT22;57257;48.408;-4.498;2023-02-02T09:08:20;12.41;61.19
69944;DHT22;57257;48.408;-4.498;2023-02-02T09:10:46;12.41;61.05
69944;DHT22;57257;48.408;-4.498;2023-02-02T09:13:11;12.44;61.07
69944;DHT22;57257;48.408;-4.498;2023-02-02T09:15:36;12.47;60.98
69944;DHT22;57257;48.408;-4.498;2023-02-02T09:18:02;12.47;60.97
69944;DHT22;57257;48.408;-4.498;2023-02-02T09:20:28;12.50;60.86
69944;DHT22;57257;48.408;-4.498;2023-02-02T09:22:54;12.53;60.98
69944;DHT22;57257;48.408;-4.498;2023-02-02T09:25:21;12.58;60.92
69944;DHT22;57257;48.408;-4.498;2023-02-02T09:27:46;12.60;60.66
69944;DHT22;57257;48.408;-4.498;2023-02-02T09:30:12;12.68;60.41
69944;DHT22;57257;48.408;-4.498;2023-02-02T09:32:38;12.71;60.31
69944;DHT22;57257;48.408;-4.498;2023-02-02T09:35:03;12.77;60.14
69944;DHT22;57257;48.408;-4.498;2023-02-02T09:37:32;12.81;60.03
69944;DHT22;57257;48.408;-4.498;2023-02-02T09:39:57;12.83;59.40
69944;DHT22;57257;48.408;-4.498;2023-02-02T09:42:41;12.83;59.43
69944;DHT22;57257;48.408;-4.498;2023-02-02T09:45:14;12.85;59.01
69944;DHT22;57257;48.408;-4.498;2023-02-02T09:47:52;12.89;59.06
69944;DHT22;57257;48.408;-4.498;2023-02-02T09:50:46;12.95;58.99
69944;DHT22;57257;48.408;-4.498;2023-02-02T09:53:22;12.97;59.03
69944;DHT22;57257;48.408;-4.498;2023-02-02T09:55:50;12.99;58.95
69944;DHT22;57257;48.408;-4.498;2023-02-02T10:06:38;13.14;58.39
69944;DHT22;57257;48.408;-4.498;2023-02-02T10:09:28;13.07;58.77
69944;DHT22;57257;48.408;-4.498;2023-02-02T10:14:58;13.01;58.59
69944;DHT22;57257;48.408;-4.498;2023-02-02T10:20:07;12.95;58.76
69944;DHT22;57257;48.408;-4.498;2023-02-02T10:22:39;12.99;58.54
69944;DHT22;57257;48.408;-4.498;2023-02-02T10:25:05;13.04;58.62
69944;DHT22;57257;48.408;-4.498;2023-02-02T10:27:37;13.05;58.41
69944;DHT22;57257;48.408;-4.498;2023-02-02T10:30:19;13.02;58.15
69944;DHT22;57257;48.408;-4.498;2023-02-02T10:33:05;13.02;58.49
69944;DHT22;57257;48.408;-4.498;2023-02-02T10:36:00;13.02;58.49
69944;DHT22;57257;48.408;-4.498;2023-02-02T10:41:28;13.08;58.31
69944;DHT22;57257;48.408;-4.498;2023-02-02T10:48:50;13.04;58.04
69944;DHT22;57257;48.408;-4.498;2023-02-02T10:51:26;13.01;57.86
69944;DHT22;57257;48.408;-4.498;2023-02-02T10:53:55;12.99;57.91
69944;DHT22;57257;48.408;-4.498;2023-02-02T10:56:27;13.01;57.98
69944;DHT22;57257;48.408;-4.498;2023-02-02T10:59:14;13.07;58.12
69944;DHT22;57257;48.408;-4.498;2023-02-02T11:01:42;13.08;58.09
69944;DHT22;57257;48.408;-4.498;2023-02-02T11:04:08;13.12;58.16
69944;DHT22;57257;48.408;-4.498;2023-02-02T11:06:53;13.15;57.93
69944;DHT22;57257;48.408;-4.498;2023-02-02T11:09:22;13.18;58.07
69944;DHT22;57257;48.408;-4.498;2023-02-02T11:11:56;13.15;58.32
69944;DHT22;57257;48.408;-4.498;2023-02-02T11:14:29;13.14;58.38
69944;DHT22;57257;48.408;-4.498;2023-02-02T11:17:03;13.14;58.40
69944;DHT22;57257;48.408;-4.498;2023-02-02T11:19:31;13.14;58.40
69944;DHT22;57257;48.408;-4.498;2023-02-02T11:21:58;13.12;58.45
69944;DHT22;57257;48.408;-4.498;2023-02-02T11:24:30;13.09;58.54
69944;DHT22;57257;48.408;-4.498;2023-02-02T11:27:06;13.07;58.66
69944;DHT22;57257;48.408;-4.498;2023-02-02T11:29:43;13.11;58.88
69944;DHT22;57257;48.408;-4.498;2023-02-02T11:34:41;13.14;59.12
69944;DHT22;57257;48.408;-4.498;2023-02-02T11:37:12;13.20;59.18
69944;DHT22;57257;48.408;-4.498;2023-02-02T11:39:40;13.25;59.08
69944;DHT22;57257;48.408;-4.498;2023-02-02T11:42:17;13.29;59.04
69944;DHT22;57257;48.408;-4.498;2023-02-02T11:44:47;13.35;59.05
69944;DHT22;57257;48.408;-4.498;2023-02-02T11:47:32;13.39;58.90
69944;DHT22;57257;48.408;-4.498;2023-02-02T11:50:01;13.45;58.84
69944;DHT22;57257;48.408;-4.498;2023-02-02T11:52:30;13.48;58.89
69944;DHT22;57257;48.408;-4.498;2023-02-02T11:55:01;13.52;58.97
69944;DHT22;57257;48.408;-4.498;2023-02-02T11:57:27;13.53;58.92
69944;DHT22;57257;48.408;-4.498;2023-02-02T12:02:32;13.58;59.20
69944;DHT22;57257;48.408;-4.498;2023-02-02T12:07:44;13.58;59.26
69944;DHT22;57257;48.408;-4.498;2023-02-02T12:10:48;13.58;59.40
69944;DHT22;57257;48.408;-4.498;2023-02-02T12:13:08;13.59;59.61
69944;DHT22;57257;48.408;-4.498;2023-02-02T12:15:50;13.59;59.60
69944;DHT22;57257;48.408;-4.498;2023-02-02T12:21:42;13.40;59.53
69944;DHT22;57257;48.408;-4.498;2023-02-02T12:24:33;13.35;59.57
69944;DHT22;57257;48.408;-4.498;2023-02-02T12:29:41;13.26;59.47
69944;DHT22;57257;48.408;-4.498;2023-02-02T12:49:27;13.30;59.66
69944;DHT22;57257;48.408;-4.498;2023-02-02T12:54:49;13.36;58.76
69944;DHT22;57257;48.408;-4.498;2023-02-02T12:57:48;13.34;58.64
69944;DHT22;57257;48.408;-4.498;2023-02-02T13:00:34;13.30;58.78
69944;DHT22;57257;48.408;-4.498;2023-02-02T13:03:35;13.32;58.92
69944;DHT22;57257;48.408;-4.498;2023-02-02T13:09:00;13.38;58.98
69944;DHT22;57257;48.408;-4.498;2023-02-02T13:11:41;13.32;58.63
69944;DHT22;57257;48.408;-4.498;2023-02-02T13:14:26;13.28;59.11
69944;DHT22;57257;48.408;-4.498;2023-02-02T13:17:00;13.36;59.33
69944;DHT22;57257;48.408;-4.498;2023-02-02T13:19:39;13.45;59.26
69944;DHT22;57257;48.408;-4.498;2023-02-02T13:22:11;13.50;58.87
69944;DHT22;57257;48.408;-4.498;2023-02-02T13:24:41;13.49;59.10
69944;DHT22;57257;48.408;-4.498;2023-02-02T13:27:13;13.55;59.31
69944;DHT22;57257;48.408;-4.498;2023-02-02T13:30:10;13.63;59.25
69944;DHT22;57257;48.408;-4.498;2023-02-02T13:32:40;13.70;59.08
69944;DHT22;57257;48.408;-4.498;2023-02-02T13:35:21;13.66;58.83
69944;DHT22;57257;48.408;-4.498;2023-02-02T13:38:10;13.67;58.97
69944;DHT22;57257;48.408;-4.498;2023-02-02T13:40:41;13.73;59.01
69944;DHT22;57257;48.408;-4.498;2023-02-02T13:46:19;13.83;58.88
69944;DHT22;57257;48.408;-4.498;2023-02-02T13:49:03;13.89;58.90
69944;DHT22;57257;48.408;-4.498;2023-02-02T13:57:16;13.87;59.31
69944;DHT22;57257;48.408;-4.498;2023-02-02T14:02:49;13.79;59.40
69944;DHT22;57257;48.408;-4.498;2023-02-02T14:05:25;13.76;59.70
69944;DHT22;57257;48.408;-4.498;2023-02-02T14:08:17;13.72;59.98
69944;DHT22;57257;48.408;-4.498;2023-02-02T14:10:56;13.74;59.80
69944;DHT22;57257;48.408;-4.498;2023-02-02T14:13:25;13.82;59.65
69944;DHT22;57257;48.408;-4.498;2023-02-02T14:18:54;13.87;58.92
69944;DHT22;57257;48.408;-4.498;2023-02-02T14:26:51;13.90;58.84
69944;DHT22;57257;48.408;-4.498;2023-02-02T14:31:55;13.83;59.62
69944;DHT22;57257;48.408;-4.498;2023-02-02T14:34:30;13.76;60.51
69944;DHT22;57257;48.408;-4.498;2023-02-02T14:45:30;13.70;61.45
69944;DHT22;57257;48.408;-4.498;2023-02-02T14:48:01;13.70;61.44
69944;DHT22;57257;48.408;-4.498;2023-02-02T14:50:40;13.73;61.57
69944;DHT22;57257;48.408;-4.498;2023-02-02T14:53:19;13.77;61.51
69944;DHT22;57257;48.408;-4.498;2023-02-02T14:56:08;13.73;61.72
69944;DHT22;57257;48.408;-4.498;2023-02-02T14:58:43;13.69;61.75
69944;DHT22;57257;48.408;-4.498;2023-02-02T15:01:22;13.70;61.82
69944;DHT22;57257;48.408;-4.498;2023-02-02T15:03:55;13.77;62.14
69944;DHT22;57257;48.408;-4.498;2023-02-02T15:20:19;13.76;61.50
69944;DHT22;57257;48.408;-4.498;2023-02-02T15:23:22;13.60;61.82
69944;DHT22;57257;48.408;-4.498;2023-02-02T15:33:37;13.45;62.30
69944;DHT22;57257;48.408;-4.498;2023-02-02T15:36:18;13.43;62.32
69944;DHT22;57257;48.408;-4.498;2023-02-02T15:38:47;13.42;62.25
69944;DHT22;57257;48.408;-4.498;2023-02-02T15:41:24;13.48;62.37
69944;DHT22;57257;48.408;-4.498;2023-02-02T15:43:52;13.50;62.36
69944;DHT22;57257;48.408;-4.498;2023-02-02T15:46:28;13.52;62.31
69944;DHT22;57257;48.408;-4.498;2023-02-02T15:51:49;13.56;62.51
69944;DHT22;57257;48.408;-4.498;2023-02-02T15:56:50;13.65;62.27
69944;DHT22;57257;48.408;-4.498;2023-02-02T15:59:19;13.69;62.10
69944;DHT22;57257;48.408;-4.498;2023-02-02T16:02:01;13.65;62.01
69944;DHT22;57257;48.408;-4.498;2023-02-02T16:04:37;13.59;61.95
69944;DHT22;57257;48.408;-4.498;2023-02-02T16:07:04;13.58;62.18
69944;DHT22;57257;48.408;-4.498;2023-02-02T16:09:34;13.55;62.12
69944;DHT22;57257;48.408;-4.498;2023-02-02T16:12:02;13.56;62.21
69944;DHT22;57257;48.408;-4.498;2023-02-02T16:14:30;13.59;62.22
69944;DHT22;57257;48.408;-4.498;2023-02-02T16:17:16;13.56;62.15
69944;DHT22;57257;48.408;-4.498;2023-02-02T16:19:42;13.49;62.28
69944;DHT22;57257;48.408;-4.498;2023-02-02T16:22:12;13.49;62.24
69944;DHT22;57257;48.408;-4.498;2023-02-02T16:24:43;13.49;62.15
69944;DHT22;57257;48.408;-4.498;2023-02-02T16:27:13;13.49;62.35
69944;DHT22;57257;48.408;-4.498;2023-02-02T16:29:39;13.50;62.15
69944;DHT22;57257;48.408;-4.498;2023-02-02T16:32:18;13.49;62.22
69944;DHT22;57257;48.408;-4.498;2023-02-02T16:34:49;13.50;62.05
69944;DHT22;57257;48.408;-4.498;2023-02-02T16:37:24;13.49;61.98
69944;DHT22;57257;48.408;-4.498;2023-02-02T16:39:55;13.42;62.06
69944;DHT22;57257;48.408;-4.498;2023-02-02T16:42:28;13.42;62.11
69944;DHT22;57257;48.408;-4.498;2023-02-02T16:44:57;13.38;62.11
69944;DHT22;57257;48.408;-4.498;2023-02-02T16:49:52;13.30;62.20
69944;DHT22;57257;48.408;-4.498;2023-02-02T16:52:20;13.26;62.36
69944;DHT22;57257;48.408;-4.498;2023-02-02T16:54:51;13.22;62.35
69944;DHT22;57257;48.408;-4.498;2023-02-02T16:57:29;13.16;62.34
69944;DHT22;57257;48.408;-4.498;2023-02-02T16:59:59;13.12;62.56
69944;DHT22;57257;48.408;-4.498;2023-02-02T17:02:37;13.09;62.77
69944;DHT22;57257;48.408;-4.498;2023-02-02T17:05:14;13.09;62.63
69944;DHT22;57257;48.408;-4.498;2023-02-02T17:07:46;13.08;62.52
69944;DHT22;57257;48.408;-4.498;2023-02-02T17:10:31;13.02;62.41
69944;DHT22;57257;48.408;-4.498;2023-02-02T17:12:58;12.99;62.49
69944;DHT22;57257;48.408;-4.498;2023-02-02T17:15:28;12.99;62.56
69944;DHT22;57257;48.408;-4.498;2023-02-02T17:17:54;12.99;62.54
69944;DHT22;57257;48.408;-4.498;2023-02-02T17:20:20;12.98;62.38
69944;DHT22;57257;48.408;-4.498;2023-02-02T17:22:47;12.94;62.46
69944;DHT22;57257;48.408;-4.498;2023-02-02T17:25:27;12.94;62.30
69944;DHT22;57257;48.408;-4.498;2023-02-02T17:27:54;12.92;62.06
69944;DHT22;57257;48.408;-4.498;2023-02-02T17:30:21;12.88;62.05
69944;DHT22;57257;48.408;-4.498;2023-02-02T17:32:46;12.88;62.14
69944;DHT22;57257;48.408;-4.498;2023-02-02T17:35:19;12.89;62.22
69944;DHT22;57257;48.408;-4.498;2023-02-02T17:37:46;12.91;62.18
69944;DHT22;57257;48.408;-4.498;2023-02-02T17:40:16;12.94;62.09
69944;DHT22;57257;48.408;-4.498;2023-02-02T17:42:43;12.94;62.04
69944;DHT22;57257;48.408;-4.498;2023-02-02T17:45:20;12.91;62.19
69944;DHT22;57257;48.408;-4.498;2023-02-02T17:47:47;12.89;62.17
69944;DHT22;57257;48.408;-4.498;2023-02-02T17:50:12;12.91;62.07
69944;DHT22;57257;48.408;-4.498;2023-02-02T17:52:38;12.87;61.89
69944;DHT22;57257;48.408;-4.498;2023-02-02T17:55:26;12.83;61.80
69944;DHT22;57257;48.408;-4.498;2023-02-02T17:57:53;12.77;61.90
69944;DHT22;57257;48.408;-4.498;2023-02-02T18:00:21;12.78;62.09